Time;durP1;ratioP1;P1;durP2;ratioP2;P2;SDS_P1;SDS_P2;PMS_P1;PMS_P2;Temp;Humidity;BMP_temperature;BMP_pressure;BME280_temperature;BME280_humidity;BME280_pressure;Samples;Min_cycle;Max_cycle;Signal;HPM_P1;HPM_P2
2023/08/31 00:00:28;;;;;;;3.03;1.83;;;16.80;63.10;;;;;;4997279;28;20058;-52
2023/08/31 00:02:55;;;;;;;5.85;1.88;;;16.80;63.10;;;;;;4995439;28;20034;-50
2023/08/31 00:05:22;;;;;;;2.97;1.85;;;16.70;63.20;;;;;;4992888;28;20052;-53
2023/08/31 00:07:48;;;;;;;2.78;1.92;;;16.70;63.30;;;;;;4992485;28;20575;-52
2023/08/31 00:10:17;;;;;;;2.75;2.20;;;16.70;63.40;;;;;;4992468;28;20552;-50
2023/08/31 00:12:49;;;;;;;2.80;2.05;;;16.60;63.40;;;;;;4989423;28;20035;-48
2023/08/31 00:15:17;;;;;;;5.32;2.30;;;16.60;64.20;;;;;;4992651;28;20109;-50
2023/08/31 00:17:44;;;;;;;3.20;2.08;;;16.60;63.60;;;;;;4994636;28;20135;-52
2023/08/31 00:20:13;;;;;;;3.17;1.77;;;16.60;63.80;;;;;;4991865;28;20046;-51
2023/08/31 00:22:40;;;;;;;2.83;1.77;;;16.60;63.90;;;;;;4991155;28;20069;-48
2023/08/31 00:25:10;;;;;;;3.75;2.30;;;16.50;63.90;;;;;;4993220;28;20042;-49
2023/08/31 00:27:42;;;;;;;2.15;1.95;;;16.50;64.00;;;;;;4994520;28;20528;-52
2023/08/31 00:30:11;;;;;;;3.33;2.30;;;16.50;64.20;;;;;;4986108;28;20038;-49
2023/08/31 00:32:42;;;;;;;3.75;2.80;;;16.40;64.20;;;;;;4990156;28;20100;-49
2023/08/31 00:35:12;;;;;;;4.93;2.40;;;16.40;64.50;;;;;;4995754;28;20030;-51
2023/08/31 00:37:39;;;;;;;4.70;2.97;;;16.40;64.40;;;;;;4990943;28;20049;-47
2023/08/31 00:40:08;;;;;;;3.65;2.72;;;16.40;64.60;;;;;;4990150;28;20069;-48
2023/08/31 00:42:38;;;;;;;3.45;2.70;;;16.30;64.70;;;;;;4989463;28;20054;-48
2023/08/31 00:45:05;;;;;;;2.92;2.63;;;16.30;64.70;;;;;;4988626;28;20097;-49
2023/08/31 00:47:32;;;;;;;2.88;2.30;;;16.30;64.80;;;;;;4991088;28;20112;-52
2023/08/31 00:50:00;;;;;;;3.40;2.47;;;16.30;64.80;;;;;;4992332;28;20038;-48
2023/08/31 00:52:28;;;;;;;3.90;2.50;;;16.30;65.00;;;;;;4991052;28;20053;-52
2023/08/31 00:54:55;;;;;;;4.40;2.35;;;16.20;64.90;;;;;;4990352;28;20046;-50
2023/08/31 00:57:26;;;;;;;3.42;2.08;;;16.20;65.00;;;;;;4990678;28;20046;-53
2023/08/31 00:59:57;;;;;;;5.03;2.35;;;16.20;65.00;;;;;;4993222;28;20580;-50
2023/08/31 01:02:50;;;;;;;3.83;2.33;;;16.20;65.00;;;;;;5005337;28;20066;-49
2023/08/31 01:05:29;;;;;;;;;;;16.20;65.80;;;;;;4992094;28;20035;-52
2023/08/31 01:08:10;;;;;;;2.92;1.80;;;16.20;65.00;;;;;;4989230;28;19921;-52
2023/08/31 01:11:05;;;;;;;2.30;2.05;;;16.20;64.60;;;;;;4991893;28;20468;-47
2023/08/31 01:13:38;;;;;;;2.50;1.98;;;16.10;64.60;;;;;;4987373;28;20497;-48
2023/08/31 01:16:08;;;;;;;2.25;2.05;;;16.10;65.00;;;;;;4992107;28;20440;-49
2023/08/31 01:18:38;;;;;;;2.05;1.60;;;16.10;65.00;;;;;;5005777;28;20042;-49
2023/08/31 01:21:14;;;;;;;3.33;1.98;;;16.00;65.10;;;;;;4991174;28;20042;-51
2023/08/31 01:23:56;;;;;;;2.55;2.00;;;15.90;64.80;;;;;;4987131;28;20460;-52
2023/08/31 01:26:23;;;;;;;2.03;1.50;;;15.90;65.60;;;;;;4990221;28;20096;-50
2023/08/31 01:28:52;;;;;;;1.60;1.48;;;15.90;65.10;;;;;;4992004;28;20981;-49
2023/08/31 01:31:20;;;;;;;1.75;1.45;;;15.80;65.10;;;;;;4990636;28;20413;-51
2023/08/31 01:33:47;;;;;;;1.75;1.27;;;15.80;65.30;;;;;;4990421;28;20400;-51
2023/08/31 01:36:22;;;;;;;1.65;1.40;;;15.80;65.50;;;;;;5005193;28;20516;-51
2023/08/31 01:38:58;;;;;;;2.30;1.05;;;15.80;65.80;;;;;;4995187;28;20047;-52
2023/08/31 01:41:28;;;;;;;1.92;1.30;;;15.80;65.70;;;;;;5005240;28;20050;-52
2023/08/31 01:43:57;;;;;;;4.03;1.50;;;15.70;65.60;;;;;;4991025;28;20258;-50
2023/08/31 01:46:25;;;;;;;2.92;1.55;;;15.70;65.60;;;;;;4990331;28;20042;-50
2023/08/31 01:48:54;;;;;;;1.73;1.60;;;15.70;65.60;;;;;;4991397;28;20528;-50
2023/08/31 01:51:20;;;;;;;2.25;1.52;;;15.60;65.70;;;;;;5004953;28;20503;-50
2023/08/31 01:53:48;;;;;;;1.83;1.35;;;15.60;65.80;;;;;;5006264;28;20147;-51
2023/08/31 01:56:17;;;;;;;2.60;1.25;;;15.60;65.80;;;;;;4990637;28;20046;-51
2023/08/31 01:58:44;;;;;;;1.52;1.20;;;15.60;65.90;;;;;;5005004;28;20046;-51
2023/08/31 02:01:14;;;;;;;2.05;1.23;;;15.60;66.10;;;;;;5005798;28;20046;-51
2023/08/31 02:03:41;;;;;;;1.52;1.42;;;15.50;66.10;;;;;;4989268;28;20054;-52
2023/08/31 02:06:08;;;;;;;2.10;1.20;;;15.50;66.20;;;;;;4989722;28;20034;-52
2023/08/31 02:08:47;;;;;;;2.38;1.38;;;15.50;66.30;;;;;;4991952;28;20038;-49
2023/08/31 02:11:17;;;;;;;1.30;1.20;;;15.50;66.50;;;;;;5001455;28;20077;-48
2023/08/31 02:13:46;;;;;;;1.23;1.13;;;15.50;66.30;;;;;;5005696;28;20058;-48
2023/08/31 02:16:13;;;;;;;1.25;1.15;;;15.50;66.40;;;;;;4993089;28;20523;-51
2023/08/31 02:18:40;;;;;;;1.50;1.10;;;15.50;66.40;;;;;;4988912;28;20119;-51
2023/08/31 02:21:07;;;;;;;1.48;1.38;;;15.40;66.60;;;;;;5003888;28;20057;-51
2023/08/31 02:23:34;;;;;;;2.13;0.95;;;15.40;66.40;;;;;;4993692;28;20104;-50
2023/08/31 02:26:04;;;;;;;1.45;1.15;;;15.40;66.50;;;;;;4990686;28;20057;-49
2023/08/31 02:28:31;;;;;;;1.33;1.23;;;15.40;66.70;;;;;;5004760;28;20088;-50
2023/08/31 02:31:02;;;;;;;2.05;1.30;;;15.40;66.60;;;;;;4989669;28;20043;-49
2023/08/31 02:33:32;;;;;;;;;;;15.40;66.90;;;;;;5011846;23;20058;-49
2023/08/31 02:35:59;;;;;;;0.85;0.70;;;15.40;66.70;;;;;;4979912;28;19953;-48
2023/08/31 02:38:35;;;;;;;2.15;1.45;;;15.40;66.30;;;;;;4987717;28;20505;-49
2023/08/31 02:41:04;;;;;;;2.40;0.98;;;15.40;66.40;;;;;;4989319;28;20449;-49
2023/08/31 02:43:31;;;;;;;0.80;0.80;;;15.40;66.60;;;;;;4987130;28;20046;-49
2023/08/31 02:46:02;;;;;;;1.20;1.10;;;15.30;66.60;;;;;;4988839;28;20109;-49
2023/08/31 02:48:29;;;;;;;0.88;0.88;;;15.30;67.10;;;;;;4988586;28;20061;-47
2023/08/31 02:51:03;;;;;;;2.15;1.60;;;15.30;66.80;;;;;;4988639;28;20037;-47
2023/08/31 02:53:31;;;;;;;1.42;1.33;;;15.30;66.90;;;;;;4985234;28;20042;-48
2023/08/31 02:55:59;;;;;;;1.55;1.35;;;15.30;67.00;;;;;;4989460;28;20046;-49
2023/08/31 02:58:28;;;;;;;1.25;0.90;;;15.30;67.00;;;;;;4988622;28;20390;-49
2023/08/31 03:01:11;;;;;;;3.20;1.58;;;15.20;67.10;;;;;;4985548;28;20109;-48
2023/08/31 03:03:42;;;;;;;2.58;1.38;;;15.20;67.60;;;;;;4988706;28;20081;-51
2023/08/31 03:06:11;;;;;;;1.45;1.27;;;15.20;67.20;;;;;;4989538;28;20712;-48
2023/08/31 03:08:40;;;;;;;1.30;1.10;;;15.20;67.20;;;;;;4987356;28;20070;-47
2023/08/31 03:11:07;;;;;;;1.30;1.20;;;15.20;67.40;;;;;;4987721;28;20054;-48
2023/08/31 03:13:37;;;;;;;3.00;1.33;;;15.10;67.80;;;;;;4988647;28;20057;-48
2023/08/31 03:16:07;;;;;;;1.30;1.20;;;15.20;67.60;;;;;;4986087;28;20038;-49
2023/08/31 03:18:34;;;;;;;2.22;1.60;;;15.20;67.70;;;;;;5002684;28;20070;-51
2023/08/31 03:21:03;;;;;;;1.55;1.45;;;15.10;67.70;;;;;;4987335;28;20405;-48
2023/08/31 03:23:32;;;;;;;1.65;1.33;;;15.10;67.70;;;;;;4988518;28;20050;-47
2023/08/31 03:26:06;;;;;;;1.98;1.55;;;15.10;67.90;;;;;;4987720;28;20452;-51
2023/08/31 03:28:35;;;;;;;3.80;1.42;;;15.10;67.90;;;;;;4986518;28;20302;-47
2023/08/31 03:31:02;;;;;;;1.60;1.50;;;15.10;68.00;;;;;;4988299;28;20042;-48
2023/08/31 03:33:29;;;;;;;1.80;1.70;;;15.00;68.00;;;;;;4988142;28;20046;-48
2023/08/31 03:36:04;;;;;;;1.33;1.23;;;15.00;68.10;;;;;;4987891;28;20045;-51
2023/08/31 03:38:41;;;;;;;1.38;1.27;;;15.00;68.60;;;;;;4984884;28;20042;-48
2023/08/31 03:41:10;;;;;;;1.95;1.55;;;15.00;68.70;;;;;;4987332;28;20054;-50
2023/08/31 03:43:41;;;;;;;1.95;1.85;;;15.00;68.30;;;;;;4988498;28;20124;-47
2023/08/31 03:46:08;;;;;;;4.03;1.70;;;15.00;68.50;;;;;;4986894;28;20097;-47
2023/08/31 03:48:34;;;;;;;1.70;1.60;;;15.00;68.40;;;;;;4985782;28;20073;-48
2023/08/31 03:51:04;;;;;;;2.28;1.80;;;14.90;68.40;;;;;;4987386;28;20125;-48
2023/08/31 03:53:31;;;;;;;2.55;1.50;;;14.90;68.40;;;;;;5004634;28;20065;-49
2023/08/31 03:56:03;;;;;;;3.42;2.10;;;14.90;68.50;;;;;;4985434;28;20053;-52
2023/08/31 03:58:34;;;;;;;2.42;1.63;;;14.90;68.60;;;;;;5002058;28;20043;-47
2023/08/31 04:01:06;;;;;;;3.22;1.85;;;14.90;68.60;;;;;;4987762;28;20046;-47
2023/08/31 04:03:33;;;;;;;2.35;1.77;;;14.90;68.60;;;;;;4987592;28;20057;-48
2023/08/31 04:06:00;;;;;;;2.10;1.80;;;14.90;68.70;;;;;;4989735;28;20441;-47
2023/08/31 04:08:27;;;;;;;2.03;1.77;;;14.90;68.80;;;;;;4991153;28;20777;-47
2023/08/31 04:10:57;;;;;;;2.25;2.05;;;14.80;68.80;;;;;;4989436;28;20073;-48
2023/08/31 04:13:25;;;;;;;2.10;1.90;;;14.80;68.90;;;;;;4990730;28;20050;-50
2023/08/31 04:15:53;;;;;;;4.32;2.00;;;14.80;69.00;;;;;;4990212;28;20054;-47
2023/08/31 04:18:21;;;;;;;3.50;2.20;;;14.80;69.10;;;;;;4989310;28;20109;-48
2023/08/31 04:20:54;;;;;;;2.50;1.90;;;14.80;69.20;;;;;;4992151;28;20050;-49
2023/08/31 04:23:24;;;;;;;3.10;2.17;;;14.80;69.30;;;;;;4990857;28;20145;-49
2023/08/31 04:25:53;;;;;;;3.88;2.15;;;14.80;69.90;;;;;;4991818;28;20121;-49
2023/08/31 04:28:23;;;;;;;3.45;2.22;;;14.80;69.30;;;;;;4988715;28;20108;-47
2023/08/31 04:30:52;;;;;;;3.28;2.15;;;14.70;69.40;;;;;;4988885;28;20163;-51
2023/08/31 04:33:19;;;;;;;2.58;2.22;;;14.70;69.50;;;;;;4989329;28;20039;-48
2023/08/31 04:35:48;;;;;;;3.03;2.08;;;14.70;69.60;;;;;;4984068;28;20468;-49
2023/08/31 04:38:17;;;;;;;6.63;3.00;;;14.70;69.60;;;;;;4987616;28;20062;-48
2023/08/31 04:40:46;;;;;;;3.05;2.47;;;14.70;69.70;;;;;;4987942;28;20042;-48
2023/08/31 04:43:16;;;;;;;3.22;2.60;;;14.70;69.70;;;;;;4990582;28;20038;-48
2023/08/31 04:45:45;;;;;;;5.38;2.65;;;14.70;69.80;;;;;;4987115;28;20049;-50
2023/08/31 04:48:14;;;;;;;2.88;2.50;;;14.70;69.90;;;;;;4983103;28;20377;-48
2023/08/31 04:50:41;;;;;;;3.20;2.17;;;14.70;69.90;;;;;;4986832;28;20125;-48
2023/08/31 04:53:07;;;;;;;2.65;2.42;;;14.80;70.00;;;;;;4987613;28;21846;-48
2023/08/31 04:55:34;;;;;;;4.75;3.20;;;14.70;70.10;;;;;;4991017;28;20043;-50
2023/08/31 04:58:00;;;;;;;3.75;2.80;;;14.60;70.10;;;;;;4990412;28;20141;-47
2023/08/31 05:00:27;;;;;;;4.30;2.67;;;14.60;70.20;;;;;;4988694;28;20066;-47
2023/08/31 05:02:54;;;;;;;2.97;2.60;;;14.70;70.40;;;;;;4991591;28;20100;-49
2023/08/31 05:05:20;;;;;;;4.78;3.10;;;14.60;70.40;;;;;;4991542;28;20125;-48
2023/08/31 05:07:47;;;;;;;3.70;3.35;;;14.60;70.50;;;;;;4991635;28;20066;-48
2023/08/31 05:10:14;;;;;;;3.72;3.08;;;14.60;70.60;;;;;;4981721;28;20118;-48
2023/08/31 05:12:41;;;;;;;3.63;3.33;;;14.60;70.70;;;;;;4991032;28;20050;-48
2023/08/31 05:15:10;;;;;;;4.18;3.10;;;14.60;71.30;;;;;;4990026;28;20138;-49
2023/08/31 05:17:39;;;;;;;5.97;3.22;;;14.60;71.00;;;;;;4988671;28;20050;-51
2023/08/31 05:20:08;;;;;;;3.38;3.08;;;14.60;70.80;;;;;;4988389;28;20386;-47
2023/08/31 05:22:34;;;;;;;3.97;3.45;;;14.60;70.90;;;;;;4990360;28;20038;-52
2023/08/31 05:25:04;;;;;;;3.83;3.17;;;14.60;71.00;;;;;;4990189;28;20500;-51
2023/08/31 05:27:30;;;;;;;5.20;3.17;;;14.60;71.10;;;;;;4988944;28;20101;-51
2023/08/31 05:29:57;;;;;;;5.53;3.80;;;14.60;71.10;;;;;;4988653;28;20694;-50
2023/08/31 05:32:29;;;;;;;4.10;3.47;;;14.70;71.20;;;;;;4984484;28;20042;-49
2023/08/31 05:34:56;;;;;;;3.42;3.13;;;14.70;71.40;;;;;;4984405;28;20042;-47
2023/08/31 05:37:25;;;;;;;3.88;3.47;;;14.70;71.40;;;;;;4986528;28;20065;-48
2023/08/31 05:39:52;;;;;;;5.47;3.80;;;14.70;71.40;;;;;;4989763;28;20166;-50
2023/08/31 05:42:19;;;;;;;4.38;3.88;;;14.70;71.50;;;;;;4983352;28;20120;-50
2023/08/31 05:44:45;;;;;;;5.57;3.60;;;14.70;71.60;;;;;;4989403;28;20097;-49
2023/08/31 05:47:12;;;;;;;4.07;3.42;;;14.70;71.60;;;;;;4984925;28;20070;-51
2023/08/31 05:49:39;;;;;;;5.13;4.07;;;14.70;71.70;;;;;;4989752;28;20046;-52
2023/08/31 05:52:06;;;;;;;4.38;3.47;;;14.80;71.70;;;;;;4989542;28;20049;-49
2023/08/31 05:54:32;;;;;;;4.90;3.60;;;14.80;71.70;;;;;;4989307;28;20074;-48
2023/08/31 05:56:59;;;;;;;5.55;4.00;;;14.80;71.80;;;;;;4986742;28;20508;-51
2023/08/31 05:59:26;;;;;;;5.38;3.58;;;14.80;71.80;;;;;;4986883;28;20078;-51
2023/08/31 06:01:52;;;;;;;4.32;3.92;;;14.80;71.80;;;;;;4985563;28;20133;-52
2023/08/31 06:04:22;;;;;;;5.15;3.50;;;15.10;72.00;;;;;;4984668;28;20050;-52
2023/08/31 06:06:51;;;;;;;5.00;3.60;;;14.90;72.00;;;;;;4989052;28;20044;-50
2023/08/31 06:09:18;;;;;;;4.97;3.55;;;14.90;72.10;;;;;;4987395;28;20623;-50
2023/08/31 06:11:45;;;;;;;4.00;3.22;;;15.00;72.20;;;;;;4986759;28;20049;-51
2023/08/31 06:14:11;;;;;;;3.47;3.00;;;15.00;72.20;;;;;;4988566;28;20599;-51
2023/08/31 06:16:38;;;;;;;5.07;3.70;;;15.00;72.30;;;;;;4986969;28;20480;-53
2023/08/31 06:19:05;;;;;;;3.28;2.97;;;15.10;72.40;;;;;;4988938;28;20050;-52
2023/08/31 06:21:35;;;;;;;5.20;3.60;;;15.00;72.30;;;;;;4989259;28;20765;-52
2023/08/31 06:24:02;;;;;;;5.35;3.50;;;15.10;72.50;;;;;;4988830;28;20046;-52
2023/08/31 06:26:29;;;;;;;4.13;3.22;;;15.10;72.50;;;;;;4984827;28;20132;-53
2023/08/31 06:28:55;;;;;;;4.80;3.55;;;15.20;72.50;;;;;;4985603;28;20386;-49
2023/08/31 06:31:22;;;;;;;3.95;3.55;;;15.20;72.50;;;;;;4986664;28;20038;-52
2023/08/31 06:33:49;;;;;;;4.72;3.30;;;15.20;72.60;;;;;;4988980;28;20485;-48
2023/08/31 06:36:15;;;;;;;5.72;3.45;;;15.30;72.80;;;;;;4988484;28;20129;-51
2023/08/31 06:38:44;;;;;;;3.85;3.22;;;15.30;72.90;;;;;;4985742;28;20073;-48
2023/08/31 06:41:11;;;;;;;4.20;3.80;;;15.30;72.80;;;;;;4988430;28;20124;-52
2023/08/31 06:43:39;;;;;;;6.20;3.53;;;15.40;72.90;;;;;;4986325;28;20058;-53
2023/08/31 06:46:05;;;;;;;5.07;4.07;;;15.40;72.90;;;;;;4987938;28;20133;-53
2023/08/31 06:48:49;;;;;;;4.32;3.35;;;15.50;72.90;;;;;;4985263;28;20054;-49
2023/08/31 06:51:16;;;;;;;4.55;3.15;;;15.50;72.80;;;;;;4989420;28;20104;-53
2023/08/31 06:53:43;;;;;;;6.80;4.05;;;15.50;72.90;;;;;;4988777;28;20069;-48
2023/08/31 06:56:10;;;;;;;4.25;3.00;;;15.60;73.00;;;;;;4986805;28;20046;-50
2023/08/31 06:58:39;;;;;;;3.97;3.10;;;15.70;73.00;;;;;;4987902;28;20126;-53
2023/08/31 07:01:06;;;;;;;5.97;3.50;;;15.70;73.00;;;;;;4989122;28;20584;-49
2023/08/31 07:03:33;;;;;;;4.20;3.05;;;15.70;73.00;;;;;;4989735;28;20386;-53
2023/08/31 07:06:00;;;;;;;3.65;2.75;;;15.80;73.00;;;;;;4989539;28;20058;-53
2023/08/31 07:08:26;;;;;;;5.57;3.10;;;15.80;73.00;;;;;;4988890;28;20101;-51
2023/08/31 07:10:53;;;;;;;4.47;3.10;;;15.90;73.10;;;;;;4989487;28;20046;-49
2023/08/31 07:13:20;;;;;;;5.25;3.55;;;15.90;73.10;;;;;;4986250;28;20030;-48
2023/08/31 07:15:48;;;;;;;2.90;2.60;;;16.00;72.80;;;;;;4987240;28;20050;-49
2023/08/31 07:18:15;;;;;;;5.25;3.22;;;16.00;72.80;;;;;;4989320;28;20047;-53
2023/08/31 07:20:45;;;;;;;3.17;2.33;;;16.10;72.80;;;;;;4989351;28;20054;-51
2023/08/31 07:23:12;;;;;;;5.65;3.05;;;16.20;73.20;;;;;;4987675;28;20060;-50
2023/08/31 07:25:42;;;;;;;3.47;2.70;;;16.20;73.00;;;;;;4985401;28;20042;-53
2023/08/31 07:28:08;;;;;;;2.63;2.42;;;16.20;73.00;;;;;;4990117;28;20046;-52
2023/08/31 07:30:35;;;;;;;3.35;2.65;;;16.30;73.10;;;;;;4986802;28;20195;-53
2023/08/31 07:33:03;;;;;;;4.45;2.60;;;16.30;73.10;;;;;;4988620;28;20125;-51
2023/08/31 07:35:42;;;;;;;4.57;3.00;;;16.40;73.10;;;;;;4989266;28;20048;-53
2023/08/31 07:38:09;;;;;;;5.35;2.80;;;16.50;72.70;;;;;;4988718;28;20129;-53
2023/08/31 07:40:36;;;;;;;4.80;2.20;;;16.50;72.70;;;;;;4991977;28;20050;-51
2023/08/31 07:43:03;;;;;;;4.70;2.33;;;16.60;72.60;;;;;;4992019;28;20112;-49
2023/08/31 07:45:30;;;;;;;5.22;2.85;;;16.60;72.30;;;;;;4992725;28;20682;-52
2023/08/31 07:47:56;;;;;;;2.97;2.45;;;16.70;72.20;;;;;;4991641;28;20378;-52
2023/08/31 07:50:23;;;;;;;5.63;2.85;;;16.70;72.20;;;;;;4992872;28;20489;-52
2023/08/31 07:52:50;;;;;;;6.50;2.88;;;16.80;72.20;;;;;;4993254;28;20118;-52
2023/08/31 07:55:19;;;;;;;4.38;3.08;;;16.90;72.10;;;;;;4990433;28;20061;-50
2023/08/31 07:57:46;;;;;;;4.28;2.72;;;16.90;72.00;;;;;;4993352;28;20042;-52
2023/08/31 08:00:14;;;;;;;3.50;3.20;;;17.00;71.70;;;;;;4989864;28;20066;-48
2023/08/31 08:02:41;;;;;;;7.18;2.80;;;17.00;71.50;;;;;;4991959;28;20057;-50
2023/08/31 08:05:08;;;;;;;3.65;2.20;;;17.10;71.40;;;;;;4991723;28;20053;-52
2023/08/31 08:07:35;;;;;;;5.75;2.67;;;17.20;71.30;;;;;;4992555;28;20066;-52
2023/08/31 08:10:02;;;;;;;6.20;2.88;;;17.20;71.20;;;;;;4989874;28;20046;-53
2023/08/31 08:12:40;;;;;;;5.38;2.45;;;17.30;70.90;;;;;;4991924;28;20073;-51
2023/08/31 08:15:08;;;;;;;6.05;3.40;;;17.30;70.80;;;;;;4991969;28;20050;-52
2023/08/31 08:17:35;;;;;;;4.45;2.63;;;17.40;70.60;;;;;;4991054;28;20042;-53
2023/08/31 08:20:03;;;;;;;3.30;2.17;;;17.40;70.80;;;;;;4990997;28;20054;-51
2023/08/31 08:22:30;;;;;;;3.35;2.35;;;17.40;70.70;;;;;;4992728;28;20100;-52
2023/08/31 08:24:56;;;;;;;4.53;2.47;;;17.50;71.20;;;;;;4991611;28;20478;-50
2023/08/31 08:27:23;;;;;;;3.30;2.30;;;17.50;71.40;;;;;;4990394;28;20049;-53
2023/08/31 08:29:50;;;;;;;4.40;2.28;;;17.60;71.50;;;;;;4989130;28;20046;-53
2023/08/31 08:32:16;;;;;;;3.85;2.80;;;17.70;71.20;;;;;;4991272;28;20038;-51
2023/08/31 08:34:43;;;;;;;2.95;2.58;;;17.70;70.80;;;;;;4991186;28;20456;-51
2023/08/31 08:37:10;;;;;;;3.20;2.45;;;17.80;70.60;;;;;;4991633;28;20659;-52
2023/08/31 08:39:36;;;;;;;3.25;2.85;;;17.80;70.60;;;;;;4990206;28;20124;-53
2023/08/31 08:42:05;;;;;;;4.60;2.75;;;17.90;70.10;;;;;;5008051;23;20050;-50
2023/08/31 08:44:35;;;;;;;3.92;3.05;;;17.90;69.90;;;;;;4973399;28;20066;-51
2023/08/31 08:47:03;;;;;;;3.45;2.58;;;18.00;70.20;;;;;;4970297;28;20042;-52
2023/08/31 08:49:32;;;;;;;4.65;2.35;;;18.00;70.20;;;;;;4972134;28;20050;-50
2023/08/31 08:51:59;;;;;;;3.53;2.90;;;18.10;69.80;;;;;;4971285;28;20042;-52
2023/08/31 08:54:27;;;;;;;3.78;2.33;;;18.10;69.70;;;;;;4971658;28;20133;-49
2023/08/31 08:56:54;;;;;;;2.50;2.20;;;18.20;69.10;;;;;;4975551;28;20465;-51
2023/08/31 08:59:20;;;;;;;2.70;2.47;;;18.30;69.20;;;;;;4974112;28;20137;-52
2023/08/31 09:01:48;;;;;;;2.90;2.40;;;18.30;68.70;;;;;;4980937;28;20085;-52
2023/08/31 09:04:15;;;;;;;5.28;2.03;;;18.40;68.60;;;;;;4981161;28;20074;-50
2023/08/31 09:06:42;;;;;;;3.78;2.28;;;18.40;68.80;;;;;;4984721;28;20108;-52
2023/08/31 09:09:10;;;;;;;5.15;2.58;;;18.60;68.30;;;;;;4980158;28;20038;-49
2023/08/31 09:11:38;;;;;;;7.38;2.85;;;18.60;68.10;;;;;;4985071;28;20043;-52
2023/08/31 09:14:15;;;;;;;3.85;2.40;;;18.70;68.40;;;;;;4982823;28;20699;-50
2023/08/31 09:16:47;;;;;;;4.47;2.58;;;18.90;67.10;;;;;;4985667;28;20050;-50
2023/08/31 09:19:19;;;;;;;4.97;2.17;;;18.90;66.80;;;;;;4973573;28;20070;-52
2023/08/31 09:21:48;;;;;;;2.88;2.15;;;19.00;66.90;;;;;;4979983;28;20400;-52
2023/08/31 09:24:17;;;;;;;4.03;2.28;;;19.10;66.40;;;;;;4981189;28;20137;-52
2023/08/31 09:26:52;;;;;;;1.77;1.67;;;19.10;66.40;;;;;;4968109;28;20126;-50
2023/08/31 09:29:19;;;;;;;4.00;2.38;;;19.20;65.70;;;;;;4974846;28;20090;-51
2023/08/31 09:31:49;;;;;;;4.22;2.05;;;19.20;66.00;;;;;;4979885;28;20488;-51
2023/08/31 09:34:17;;;;;;;5.40;2.13;;;19.30;66.20;;;;;;4984471;28;20074;-51
2023/08/31 09:36:44;;;;;;;6.57;1.92;;;19.30;66.00;;;;;;4975873;28;20146;-49
2023/08/31 09:39:15;;;;;;;4.13;2.20;;;19.40;66.30;;;;;;4994812;28;20054;-48
2023/08/31 09:41:54;;;;;;;5.57;2.15;;;19.50;65.70;;;;;;4980223;28;20057;-52
2023/08/31 09:44:22;;;;;;;3.88;1.63;;;19.60;65.60;;;;;;4980192;28;20118;-52
2023/08/31 09:46:48;;;;;;;7.80;2.33;;;19.70;65.60;;;;;;4974733;28;20054;-50
2023/08/31 09:49:18;;;;;;;2.78;2.20;;;19.80;65.60;;;;;;4969720;28;20039;-53
2023/08/31 09:51:47;;;;;;;2.97;2.08;;;19.90;65.00;;;;;;4965489;28;20109;-52
2023/08/31 09:54:16;;;;;;;3.15;2.22;;;20.00;64.40;;;;;;4969185;28;20098;-49
2023/08/31 09:56:44;;;;;;;5.78;2.15;;;20.10;64.10;;;;;;4978117;28;20050;-52
2023/08/31 09:59:12;;;;;;;6.78;1.98;;;20.30;63.60;;;;;;4978128;28;20047;-48
2023/08/31 10:01:40;;;;;;;5.80;2.03;;;20.30;64.10;;;;;;4977586;28;20129;-52
2023/08/31 10:04:08;;;;;;;3.67;1.63;;;20.50;63.20;;;;;;4985305;28;20046;-53
2023/08/31 10:06:38;;;;;;;2.17;1.88;;;20.50;63.00;;;;;;4985301;28;20043;-53
2023/08/31 10:09:06;;;;;;;2.97;2.00;;;20.60;62.10;;;;;;4976314;28;20038;-49
2023/08/31 10:11:34;;;;;;;3.50;1.95;;;20.70;62.60;;;;;;4984514;28;20046;-51
2023/08/31 10:14:04;;;;;;;3.17;1.98;;;20.70;62.20;;;;;;4985703;28;20113;-53
2023/08/31 10:16:32;;;;;;;2.55;1.80;;;20.80;62.50;;;;;;4974704;28;20105;-53
2023/08/31 10:18:59;;;;;;;3.67;2.80;;;20.90;62.10;;;;;;4983841;28;20056;-49
2023/08/31 10:21:26;;;;;;;4.57;2.55;;;20.90;61.60;;;;;;4983634;28;20525;-52
2023/08/31 10:23:53;;;;;;;5.72;2.05;;;21.00;61.20;;;;;;4978933;28;20079;-50
2023/08/31 10:26:32;;;;;;;2.88;2.00;;;21.00;60.70;;;;;;4980382;28;20053;-50
2023/08/31 10:29:00;;;;;;;3.05;1.73;;;21.00;60.50;;;;;;4977675;28;20685;-51
2023/08/31 10:31:32;;;;;;;6.85;2.10;;;21.00;60.70;;;;;;4974774;28;20513;-53
2023/08/31 10:34:04;;;;;;;4.35;2.45;;;21.00;60.20;;;;;;4985721;28;20116;-51
2023/08/31 10:36:46;;;;;;;4.85;2.75;;;21.00;60.50;;;;;;4983124;28;20050;-52
2023/08/31 10:39:23;;;;;;;;;;;21.00;60.10;;;;;;4973000;28;20075;-49
2023/08/31 10:41:55;;;;;;;2.38;2.03;;;21.10;61.10;;;;;;4974677;28;20005;-52
2023/08/31 10:44:24;;;;;;;4.97;2.33;;;21.10;59.70;;;;;;4983163;28;20428;-49
2023/08/31 10:46:52;;;;;;;3.55;1.75;;;21.10;60.30;;;;;;4979888;28;20100;-51
2023/08/31 10:49:21;;;;;;;4.43;3.00;;;21.20;60.50;;;;;;4967892;28;20039;-50
2023/08/31 10:51:50;;;;;;;3.28;2.17;;;21.20;60.20;;;;;;4969120;28;20035;-52
2023/08/31 10:54:24;;;;;;;5.25;2.25;;;21.30;60.00;;;;;;4982097;28;20124;-51
2023/08/31 10:56:56;;;;;;;3.88;1.90;;;21.40;59.60;;;;;;4975378;28;20042;-52
2023/08/31 10:59:25;;;;;;;2.53;1.92;;;21.50;59.10;;;;;;4976263;28;20045;-50
2023/08/31 11:02:04;;;;;;;4.90;2.47;;;21.50;58.90;;;;;;4976465;28;20042;-53
2023/08/31 11:04:51;;;;;;;4.15;1.92;;;21.50;58.40;;;;;;4983045;28;20043;-50
2023/08/31 11:07:24;;;;;;;3.47;1.80;;;21.50;59.20;;;;;;4971097;28;20039;-51
2023/08/31 11:09:51;;;;;;;3.30;1.52;;;21.50;59.00;;;;;;4981787;28;20093;-52
2023/08/31 11:12:21;;;;;;;10.18;2.65;;;21.60;59.00;;;;;;4984293;28;20042;-51
2023/08/31 11:14:48;;;;;;;3.47;2.10;;;21.60;58.90;;;;;;4977845;28;20069;-50
2023/08/31 11:17:16;;;;;;;4.47;2.17;;;21.70;59.10;;;;;;4981428;28;20043;-51
2023/08/31 11:19:44;;;;;;;4.45;2.55;;;21.70;58.80;;;;;;4990597;28;20448;-53
2023/08/31 11:22:11;;;;;;;3.47;2.15;;;21.70;57.70;;;;;;4989351;28;20108;-51
2023/08/31 11:24:41;;;;;;;4.30;2.28;;;21.80;57.50;;;;;;4980389;28;20417;-48
2023/08/31 11:27:10;;;;;;;5.60;1.90;;;21.80;57.70;;;;;;4976427;28;20043;-51
2023/08/31 11:29:38;;;;;;;3.47;2.25;;;21.90;58.40;;;;;;4980947;28;20561;-51
2023/08/31 11:32:05;;;;;;;3.22;1.52;;;22.00;57.80;;;;;;4972094;28;20457;-50
2023/08/31 11:34:32;;;;;;;3.38;1.45;;;22.10;57.30;;;;;;4970740;28;20117;-50
2023/08/31 11:36:59;;;;;;;3.78;1.98;;;22.20;56.70;;;;;;4976529;28;20097;-48
2023/08/31 11:39:25;;;;;;;2.60;1.58;;;22.30;55.60;;;;;;4980406;28;20078;-50
2023/08/31 11:41:52;;;;;;;3.25;1.75;;;22.30;55.40;;;;;;4980330;28;20561;-50
2023/08/31 11:44:19;;;;;;;3.33;1.85;;;22.40;55.00;;;;;;4988498;28;20097;-51
2023/08/31 11:46:50;;;;;;;4.43;1.77;;;22.40;54.90;;;;;;4965296;28;20501;-52
2023/08/31 11:49:20;;;;;;;4.00;2.03;;;22.40;54.10;;;;;;4974707;28;20039;-53
2023/08/31 11:51:50;;;;;;;5.32;1.73;;;22.50;54.20;;;;;;4972981;28;20042;-52
2023/08/31 11:54:17;;;;;;;3.03;1.70;;;22.50;54.70;;;;;;4982876;28;20038;-51
2023/08/31 11:56:49;;;;;;;5.05;1.77;;;22.50;53.90;;;;;;4984088;28;20042;-50
2023/08/31 11:59:17;;;;;;;3.20;1.85;;;22.40;53.90;;;;;;4980572;28;20453;-52
2023/08/31 12:01:48;;;;;;;2.35;1.88;;;22.40;54.10;;;;;;4979990;28;20042;-53
2023/08/31 12:04:17;;;;;;;3.80;1.80;;;22.40;54.70;;;;;;4981751;28;20130;-53
2023/08/31 12:06:48;;;;;;;4.40;2.10;;;22.40;55.30;;;;;;4975942;28;20041;-49
2023/08/31 12:09:15;;;;;;;4.15;1.70;;;22.40;55.20;;;;;;4973856;28;20066;-52
2023/08/31 12:11:41;;;;;;;3.78;1.92;;;22.40;55.40;;;;;;4977763;28;21006;-49
2023/08/31 12:14:22;;;;;;;3.85;1.40;;;22.50;56.00;;;;;;4990284;28;20163;-52
2023/08/31 12:16:49;;;;;;;3.33;1.73;;;22.60;55.00;;;;;;4973035;28;20044;-53
2023/08/31 12:19:16;;;;;;;2.60;1.60;;;22.70;55.50;;;;;;4975022;28;20050;-53
2023/08/31 12:21:45;;;;;;;5.57;1.75;;;22.80;55.60;;;;;;4982470;28;20060;-52
2023/08/31 12:24:12;;;;;;;2.72;1.63;;;22.90;54.70;;;;;;4983766;28;20051;-50
2023/08/31 12:26:40;;;;;;;1.73;1.55;;;23.00;55.50;;;;;;4973286;28;20043;-53
2023/08/31 12:29:06;;;;;;;3.00;1.65;;;23.10;54.40;;;;;;4982193;28;20035;-53
2023/08/31 12:31:33;;;;;;;2.42;1.48;;;23.10;55.10;;;;;;4972080;28;20510;-52
2023/08/31 12:34:04;;;;;;;4.32;1.90;;;23.30;53.70;;;;;;4974038;28;20041;-53
2023/08/31 12:36:31;;;;;;;3.80;1.90;;;23.40;53.00;;;;;;4966395;28;20061;-53
2023/08/31 12:39:01;;;;;;;3.33;1.38;;;23.40;53.30;;;;;;4968437;28;20062;-52
2023/08/31 12:41:28;;;;;;;3.03;1.85;;;23.40;53.60;;;;;;4986854;28;20505;-52
2023/08/31 12:43:56;;;;;;;2.40;1.30;;;23.40;52.80;;;;;;4984618;28;20050;-52
2023/08/31 12:46:26;;;;;;;2.08;1.20;;;23.50;51.70;;;;;;4982932;28;20108;-53
2023/08/31 12:48:52;;;;;;;2.47;1.50;;;23.50;51.00;;;;;;4984592;28;20063;-53
2023/08/31 12:51:19;;;;;;;2.70;1.63;;;23.60;51.80;;;;;;4979990;28;20070;-52
2023/08/31 12:53:46;;;;;;;2.70;1.35;;;23.60;52.40;;;;;;4984723;28;20034;-50
2023/08/31 12:56:21;;;;;;;5.07;1.30;;;23.70;52.00;;;;;;4984743;28;20049;-50